Terminal Aerodrome Forecast
Issued by NWS

Home | Current Version | Previous Version | Text Only | Print | Product List | Glossary On
Versions: 1 2 3 4 5 6 7 8 9 10 11 12
000
FTUS41 KLWX 232325
TAFMTN
TAF
KMTN 232325Z 2400/2424 28006KT P6SM BKN060
     FM240100 26005KT P6SM SCT060
     FM241200 04004KT P6SM FEW070
     FM241700 13004KT P6SM FEW050
      AMD NOT SKED 2402/2412=

USA.gov is the U.S. government's official web portal to all federal, state and local government web resources and services.